Time,TemperatureF,DewpointF,PressureIn,WindDirection,WindDirectionDegrees,WindSpeedMPH,WindSpeedGustMPH,Humidity,HourlyPrecipIn,Conditions,Clouds,dailyrainin,SoftwareType,DateUTC
2013-05-31 00:02:00,76.3,24.0,29.61,SE,130,2.0,4.0,14,0.00,,,0.00,weatherlink.com 1.10,2013-05-31 06:02:00,
2013-05-31 00:18:00,76.3,24.0,29.61,SSW,201,1.0,6.0,14,0.00,,,0.00,weatherlink.com 1.10,2013-05-31 06:18:00,
2013-05-31 00:32:00,76.3,22.0,29.61,SSW,208,4.0,6.0,13,0.00,,,0.00,weatherlink.com 1.10,2013-05-31 06:32:00,
2013-05-31 00:47:00,75.9,23.0,29.61,WNW,301,2.0,6.0,14,0.00,,,0.00,weatherlink.com 1.10,2013-05-31 06:47:00,
2013-05-31 01:02:00,75.8,26.0,29.61,NW,304,3.0,10.0,16,0.00,,,0.00,weatherlink.com 1.10,2013-05-31 07:02:00,
2013-05-31 01:17:00,74.2,27.0,29.61,West,259,2.0,6.0,17,0.00,,,0.00,weatherlink.com 1.10,2013-05-31 07:17:00,
2013-05-31 01:32:00,73.6,26.0,29.61,WNW,297,3.0,5.0,17,0.00,,,0.00,weatherlink.com 1.10,2013-05-31 07:32:00,
2013-05-31 01:47:00,72.9,25.0,29.62,West,271,1.0,4.0,17,0.00,,,0.00,weatherlink.com 1.10,2013-05-31 07:47:00,
2013-05-31 02:02:00,72.7,27.0,29.61,WNW,290,2.0,7.0,18,0.00,,,0.00,weatherlink.com 1.10,2013-05-31 08:02:00,
2013-05-31 02:17:00,73.1,26.0,29.61,WNW,302,5.0,10.0,17,0.00,,,0.00,weatherlink.com 1.10,2013-05-31 08:17:00,
2013-05-31 02:32:00,72.6,27.0,29.61,West,269,1.0,5.0,18,0.00,,,0.00,weatherlink.com 1.10,2013-05-31 08:32:00,
2013-05-31 02:47:00,71.6,27.0,29.61,NNE,18,2.0,3.0,19,0.00,,,0.00,weatherlink.com 1.10,2013-05-31 08:47:00,
2013-05-31 03:02:00,71.4,27.0,29.61,NW,320,2.0,6.0,19,0.00,,,0.00,weatherlink.com 1.10,2013-05-31 09:02:00,
2013-05-31 03:17:00,70.9,28.0,29.61,NNW,335,2.0,5.0,20,0.00,,,0.00,weatherlink.com 1.10,2013-05-31 09:17:00,
2013-05-31 03:32:00,70.7,28.0,29.61,North,360,0.0,7.0,20,0.00,,,0.00,weatherlink.com 1.10,2013-05-31 09:32:00,
2013-05-31 03:47:00,69.8,28.0,29.61,North,351,2.0,3.0,21,0.00,,,0.00,weatherlink.com 1.10,2013-05-31 09:47:00,
2013-05-31 04:02:00,69.7,29.0,29.61,North,3,4.0,4.0,22,0.00,,,0.00,weatherlink.com 1.10,2013-05-31 10:02:00,
2013-05-31 04:17:00,70.3,30.0,29.62,NW,326,2.0,6.0,22,0.00,,,0.00,weatherlink.com 1.10,2013-05-31 10:17:00,
2013-05-31 04:32:00,70.1,31.0,29.62,NNW,345,0.0,5.0,23,0.00,,,0.00,weatherlink.com 1.10,2013-05-31 10:32:00,
2013-05-31 04:47:00,69.4,31.0,29.63,NNE,12,1.0,2.0,24,0.00,,,0.00,weatherlink.com 1.10,2013-05-31 10:47:00,
2013-05-31 05:02:00,69.0,31.0,29.63,NNE,16,2.0,4.0,24,0.00,,,0.00,weatherlink.com 1.10,2013-05-31 11:02:00,
2013-05-31 05:17:00,69.9,31.0,29.64,NNW,332,2.0,5.0,24,0.00,,,0.00,weatherlink.com 1.10,2013-05-31 11:17:00,
2013-05-31 05:32:00,69.5,32.0,29.64,North,349,3.0,5.0,25,0.00,,,0.00,weatherlink.com 1.10,2013-05-31 11:32:00,
2013-05-31 05:48:00,68.5,31.0,29.64,NNW,338,2.0,5.0,25,0.00,,,0.00,weatherlink.com 1.10,2013-05-31 11:48:00,
2013-05-31 06:03:00,67.9,32.0,29.64,North,8,0.0,3.0,26,0.00,,,0.00,weatherlink.com 1.10,2013-05-31 12:03:00,
2013-05-31 06:18:00,67.5,31.0,29.65,ENE,65,1.0,1.0,26,0.00,,,0.00,weatherlink.com 1.10,2013-05-31 12:18:00,
2013-05-31 06:33:00,67.6,32.0,29.65,North,1,0.0,3.0,27,0.00,,,0.00,weatherlink.com 1.10,2013-05-31 12:33:00,
2013-05-31 06:48:00,67.8,33.0,29.65,North,8,2.0,4.0,28,0.00,,,0.00,weatherlink.com 1.10,2013-05-31 12:48:00,
2013-05-31 07:04:00,69.1,34.0,29.66,North,356,3.0,5.0,27,0.00,,,0.00,weatherlink.com 1.10,2013-05-31 13:04:00,
2013-05-31 07:18:00,70.4,34.0,29.67,North,350,1.0,6.0,26,0.00,,,0.00,weatherlink.com 1.10,2013-05-31 13:18:00,
2013-05-31 07:33:00,71.4,35.0,29.67,North,351,2.0,6.0,26,0.00,,,0.00,weatherlink.com 1.10,2013-05-31 13:33:00,
2013-05-31 07:48:00,72.7,36.0,29.67,NW,314,4.0,7.0,26,0.00,,,0.00,weatherlink.com 1.10,2013-05-31 13:48:00,
2013-05-31 08:04:00,72.8,35.0,29.67,WNW,293,2.0,11.0,25,0.00,,,0.00,weatherlink.com 1.10,2013-05-31 14:04:00,
2013-05-31 08:18:00,73.1,35.0,29.67,North,349,3.0,9.0,25,0.00,,,0.00,weatherlink.com 1.10,2013-05-31 14:18:00,
2013-05-31 08:33:00,73.7,36.0,29.68,NNW,343,6.0,9.0,25,0.00,,,0.00,weatherlink.com 1.10,2013-05-31 14:33:00,
2013-05-31 08:48:00,74.3,35.0,29.68,NNW,337,5.0,8.0,24,0.00,,,0.00,weatherlink.com 1.10,2013-05-31 14:48:00,
2013-05-31 09:03:00,75.4,36.0,29.68,NW,321,4.0,12.0,24,0.00,,,0.00,weatherlink.com 1.10,2013-05-31 15:03:00,
2013-05-31 09:18:00,76.4,37.0,29.68,NW,304,3.0,9.0,24,0.00,,,0.00,weatherlink.com 1.10,2013-05-31 15:18:00,
2013-05-31 09:33:00,77.8,38.0,29.68,WNW,288,5.0,10.0,24,0.00,,,0.00,weatherlink.com 1.10,2013-05-31 15:33:00,
2013-05-31 09:48:00,79.2,37.0,29.67,WNW,301,9.0,12.0,22,0.00,,,0.00,weatherlink.com 1.10,2013-05-31 15:48:00,
2013-05-31 10:03:00,80.3,39.0,29.67,WNW,298,5.0,12.0,23,0.00,,,0.00,weatherlink.com 1.10,2013-05-31 16:03:00,
2013-05-31 10:18:00,81.0,39.0,29.67,WNW,295,9.0,13.0,22,0.00,,,0.00,weatherlink.com 1.10,2013-05-31 16:18:00,
2013-05-31 10:33:00,81.7,38.0,29.66,WNW,300,6.0,14.0,21,0.00,,,0.00,weatherlink.com 1.10,2013-05-31 16:33:00,
2013-05-31 10:48:00,82.5,39.0,29.66,WNW,288,9.0,13.0,21,0.00,,,0.00,weatherlink.com 1.10,2013-05-31 16:48:00,
2013-05-31 11:03:00,82.9,38.0,29.66,WNW,291,7.0,12.0,20,0.00,,,0.00,weatherlink.com 1.10,2013-05-31 17:03:00,
2013-05-31 11:18:00,82.9,39.0,29.66,West,259,5.0,13.0,21,0.00,,,0.00,weatherlink.com 1.10,2013-05-31 17:18:00,
2013-05-31 11:33:00,83.9,37.0,29.66,NW,307,3.0,12.0,19,0.00,,,0.00,weatherlink.com 1.10,2013-05-31 17:33:00,
2013-05-31 11:48:00,84.7,38.0,29.65,West,277,5.0,11.0,19,0.00,,,0.00,weatherlink.com 1.10,2013-05-31 17:48:00,
2013-05-31 12:03:00,84.8,37.0,29.65,NW,305,5.0,12.0,18,0.00,,,0.00,weatherlink.com 1.10,2013-05-31 18:03:00,
2013-05-31 12:18:00,85.1,36.0,29.64,NNW,335,3.0,12.0,17,0.00,,,0.00,weatherlink.com 1.10,2013-05-31 18:18:00,
2013-05-31 12:33:00,86.2,33.0,29.63,NW,307,7.0,12.0,15,0.00,,,0.00,weatherlink.com 1.10,2013-05-31 18:33:00,
2013-05-31 12:48:00,87.1,39.0,29.63,West,267,2.0,10.0,18,0.00,,,0.00,weatherlink.com 1.10,2013-05-31 18:48:00,
2013-05-31 13:03:00,87.3,34.0,29.62,West,281,3.0,15.0,15,0.00,,,0.00,weatherlink.com 1.10,2013-05-31 19:03:00,
2013-05-31 13:19:00,87.0,34.0,29.62,West,273,8.0,17.0,15,0.00,,,0.00,weatherlink.com 1.10,2013-05-31 19:19:00,
2013-05-31 13:34:00,87.6,33.0,29.61,SW,224,1.0,11.0,14,0.00,,,0.00,weatherlink.com 1.10,2013-05-31 19:34:00,
2013-05-31 13:49:00,88.2,33.0,29.60,WNW,285,2.0,13.0,14,0.00,,,0.00,weatherlink.com 1.10,2013-05-31 19:49:00,
2013-05-31 14:04:00,89.7,34.0,29.59,West,280,2.0,11.0,14,0.00,,,0.00,weatherlink.com 1.10,2013-05-31 20:04:00,
2013-05-31 14:19:00,89.4,36.0,29.59,NW,319,6.0,13.0,15,0.00,,,0.00,weatherlink.com 1.10,2013-05-31 20:19:00,
2013-05-31 14:34:00,89.1,34.0,29.59,West,266,7.0,16.0,14,0.00,,,0.00,weatherlink.com 1.10,2013-05-31 20:34:00,
2013-05-31 14:49:00,90.2,35.0,29.58,WNW,300,4.0,11.0,14,0.00,,,0.00,weatherlink.com 1.10,2013-05-31 20:49:00,
2013-05-31 15:05:00,89.9,33.0,29.58,West,267,8.0,13.0,13,0.00,,,0.00,weatherlink.com 1.10,2013-05-31 21:05:00,
2013-05-31 15:19:00,91.1,30.0,29.57,SSW,197,8.0,16.0,11,0.00,,,0.00,weatherlink.com 1.10,2013-05-31 21:19:00,
2013-05-31 15:34:00,90.2,33.0,29.56,WNW,295,3.0,12.0,13,0.00,,,0.00,weatherlink.com 1.10,2013-05-31 21:34:00,
2013-05-31 15:49:00,90.6,35.0,29.55,WNW,297,5.0,20.0,14,0.00,,,0.00,weatherlink.com 1.10,2013-05-31 21:49:00,
2013-05-31 16:04:00,91.2,32.0,29.55,WSW,254,7.0,17.0,12,0.00,,,0.00,weatherlink.com 1.10,2013-05-31 22:04:00,
2013-05-31 16:19:00,90.8,32.0,29.55,WNW,294,5.0,15.0,12,0.00,,,0.00,weatherlink.com 1.10,2013-05-31 22:19:00,
2013-05-31 16:34:00,91.4,32.0,29.54,WNW,298,5.0,12.0,12,0.00,,,0.00,weatherlink.com 1.10,2013-05-31 22:34:00,
2013-05-31 16:49:00,91.6,30.0,29.53,West,274,5.0,14.0,11,0.00,,,0.00,weatherlink.com 1.10,2013-05-31 22:49:00,
2013-05-31 17:04:00,91.8,30.0,29.53,SW,218,11.0,17.0,11,0.00,,,0.00,weatherlink.com 1.10,2013-05-31 23:04:00,
2013-05-31 17:19:00,91.8,34.0,29.52,WSW,250,4.0,12.0,13,0.00,,,0.00,weatherlink.com 1.10,2013-05-31 23:19:00,
2013-05-31 17:34:00,91.8,32.0,29.52,WNW,292,6.0,18.0,12,0.00,,,0.00,weatherlink.com 1.10,2013-05-31 23:34:00,
2013-05-31 17:49:00,92.0,30.0,29.51,West,262,7.0,11.0,11,0.00,,,0.00,weatherlink.com 1.10,2013-05-31 23:49:00,
2013-05-31 18:04:00,92.0,30.0,29.51,WNW,288,6.0,16.0,11,0.00,,,0.00,weatherlink.com 1.10,2013-06-01 00:04:00,
2013-05-31 18:19:00,91.9,32.0,29.51,West,259,8.0,13.0,12,0.00,,,0.00,weatherlink.com 1.10,2013-06-01 00:19:00,
2013-05-31 18:34:00,91.6,30.0,29.51,WNW,300,10.0,15.0,11,0.00,,,0.00,weatherlink.com 1.10,2013-06-01 00:34:00,
2013-05-31 18:49:00,90.9,29.0,29.51,WNW,290,4.0,13.0,11,0.00,,,0.00,weatherlink.com 1.10,2013-06-01 00:49:00,
2013-05-31 19:04:00,90.5,31.0,29.51,WNW,290,8.0,11.0,12,0.00,,,0.00,weatherlink.com 1.10,2013-06-01 01:04:00,
2013-05-31 19:20:00,90.2,29.0,29.52,WSW,255,3.0,11.0,11,0.00,,,0.00,weatherlink.com 1.10,2013-06-01 01:20:00,
2013-05-31 19:34:00,90.2,35.0,29.52,West,279,4.0,9.0,14,0.00,,,0.00,weatherlink.com 1.10,2013-06-01 01:34:00,
2013-05-31 19:49:00,89.4,30.0,29.52,West,277,3.0,7.0,12,0.00,,,0.00,weatherlink.com 1.10,2013-06-01 01:49:00,
2013-05-31 20:04:00,87.9,31.0,29.52,WSW,249,0.0,8.0,13,0.00,,,0.00,weatherlink.com 1.10,2013-06-01 02:04:00,
2013-05-31 20:19:00,86.0,31.0,29.52,West,277,0.0,2.0,14,0.00,,,0.00,weatherlink.com 1.10,2013-06-01 02:19:00,
2013-05-31 20:34:00,85.5,33.0,29.52,WNW,302,0.0,6.0,15,0.00,,,0.00,weatherlink.com 1.10,2013-06-01 02:34:00,
2013-05-31 20:49:00,84.7,32.0,29.53,NNW,330,3.0,5.0,15,0.00,,,0.00,weatherlink.com 1.10,2013-06-01 02:49:00,
2013-05-31 21:04:00,84.1,33.0,29.53,NNW,345,0.0,3.0,16,0.00,,,0.00,weatherlink.com 1.10,2013-06-01 03:04:00,
2013-05-31 21:19:00,82.8,32.0,29.54,WNW,291,2.0,3.0,16,0.00,,,0.00,weatherlink.com 1.10,2013-06-01 03:19:00,
2013-05-31 21:34:00,82.6,30.0,29.54,North,9,0.0,3.0,15,0.00,,,0.00,weatherlink.com 1.10,2013-06-01 03:34:00,
2013-05-31 21:49:00,82.5,30.0,29.55,NNE,25,0.0,6.0,15,0.00,,,0.00,weatherlink.com 1.10,2013-06-01 03:49:00,
2013-05-31 22:04:00,82.5,30.0,29.56,North,349,1.0,4.0,15,0.00,,,0.00,weatherlink.com 1.10,2013-06-01 04:04:00,
2013-05-31 22:19:00,82.0,30.0,29.56,North,6,2.0,4.0,15,0.00,,,0.00,weatherlink.com 1.10,2013-06-01 04:19:00,
2013-05-31 22:34:00,82.2,30.0,29.56,North,351,4.0,7.0,15,0.00,,,0.00,weatherlink.com 1.10,2013-06-01 04:34:00,
2013-05-31 22:49:00,81.9,31.0,29.56,North,356,2.0,5.0,16,0.00,,,0.00,weatherlink.com 1.10,2013-06-01 04:49:00,
2013-05-31 23:04:00,81.6,31.0,29.57,North,354,2.0,5.0,16,0.00,,,0.00,weatherlink.com 1.10,2013-06-01 05:04:00,
2013-05-31 23:19:00,81.4,33.0,29.57,North,11,1.0,5.0,17,0.00,,,0.00,weatherlink.com 1.10,2013-06-01 05:19:00,
2013-05-31 23:34:00,81.5,34.0,29.57,NNE,13,2.0,6.0,18,0.00,,,0.00,weatherlink.com 1.10,2013-06-01 05:34:00,
2013-05-31 23:49:00,81.7,38.0,29.57,NW,321,4.0,10.0,21,0.00,,,0.00,weatherlink.com 1.10,2013-06-01 05:49:00,